AirNav   Air Wisconsin Airman Trainee
 
 271 users online  

C27 Manchester Municipal Airport
Manchester, Iowa, USA

GOING TO MANCHESTER?


FAA INFORMATION EFFECTIVE 28 FEBRUARY 2019

Location

FAA Identifier: C27
Lat/Long: 42-29-25.7850N / 091-29-52.3450W
42-29.429750N / 091-29.872417W
42.4904958 / -91.4978736
(estimated)
Elevation: 987 ft. / 300.8 m (surveyed)
Variation: 02E (1985)
From city: 2 miles W of MANCHESTER, IA
Time zone: UTC -6 (UTC -5 during Daylight Saving Time)
Zip code: 52057

Airport Operations

Airport use: Open to the public
Activation date: 12/1963
Control tower: no
ARTCC: CHICAGO CENTER
FSS: FORT DODGE FLIGHT SERVICE STATION
NOTAMs facility: FOD (NOTAM-D service available)
Attendance: ON CALL
Wind indicator: lighted
Segmented circle: no
Beacon: white-green (lighted land airport)
Operates sunset to sunrise.

Airport Communications

CTAF: 122.9

Nearby radio navigation aids

VOR radial/distance  VOR name  Freq  Var
DBQr275/35.3DUBUQUE VORTAC115.8004E
CIDr014/38.4CEDAR RAPIDS VOR/DME114.1005E

 
NDB name  Hdg/Dist  Freq  Var  ID
WAPSIE084/20.220600EIIB .. .. -...

Airport Services

Fuel available: 100LL
Parking: tiedowns
Airframe service: NONE
Powerplant service: NONE

Runway Information

Runway 18/36

Dimensions: 3465 x 50 ft. / 1056 x 15 m
EXTENDED 190' RWY 18 END
Surface: asphalt, in good condition
Runway edge lights: low intensity
RUNWAY 18  RUNWAY 36
Latitude: 42-29.715167N42-29.144333N
Longitude: 091-29.873500W091-29.871333W
Elevation: 948.0 ft.948.0 ft.
Traffic pattern: leftleft
Displaced threshold: no305 ft.
Markings: basic, in good conditionbasic, in good condition
Obstructions: 20 ft. tree, 1033 ft. from runway, 63 ft. right of centerline, 41:1 slope to clear28 ft. bldg, 295 ft. from runway, 95 ft. right of centerline, 3:1 slope to clear
RWY 36 APCH SLOPE 21:1 TO DSPLCD THLD.

Airport Ownership and Management from official FAA records

Ownership: Publicly-owned
Owner: CITY OF MANCHESTER
208 E MAIN STREET
MANCHESTER, IA 52057
Phone 563-927-3636
Manager: TIM VICK
208 E MAIN STREET
MANCHESTER, IA 52057
Phone 563-927-3636
563-608-3566 CELL OR 563-927-3355 POLICE.

Airport Operational Statistics

Aircraft based on the field: 19
Single engine airplanes: 13
Helicopters: 1
Ultralights: 5
    
Aircraft operations: avg 21/week *
61% transient general aviation
39% local general aviation
* for 12-month period ending 31 July 2017

Additional Remarks

ULTRALIGHT ACTIVITY IN VICINITY OF ARPT.
DEER ON & INVOF ARPT.

Instrument Procedures

There are no published instrument procedures at C27.

Some nearby airports with instrument procedures:

KIIB - Independence Municipal Airport (20 nm W)
KMXO - Monticello Regional Airport (22 nm SE)
KOLZ - Oelwein Municipal Airport (24 nm NW)
KVTI - Vinton Veterans Memorial Airpark (29 nm SW)
3Y2 - George L Scott Municipal Airport (32 nm NW)
 
Loc | Ops | Rwys | IFR | FBO | Links
Com | Nav | Svcs | Stats | Notes
Area around C27 (Manchester Municipal Airport)
 
Road maps at: MapQuest Bing Google
 
Aerial photo
WARNING: Photo may not be current or correct
Aerial photo of C27 (Manchester Municipal Airport)
Do you have a better or more recent aerial photo of Manchester Municipal Airport that you would like to share? If so, please send us your photo.

 
Sectional chart

 
Airport distance calculator
Flying to Manchester Municipal Airport? Find the distance to fly.

From to C27

Sunrise and sunset
Times for 23-Mar-2019
 Local
(UTC-5)
 Zulu
(UTC)
Morning civil twilight06:3711:37
Sunrise07:0512:05
Sunset19:2000:20
Evening civil twilight19:4800:48

Current date and time
Zulu (UTC)  23-Mar-2019 07:50:21
Local (UTC-5)  23-Mar-2019 02:50:21
 
METAR
KIIB 
20nm W 
230735Z AUTO 01004KT 10SM CLR M01/M01 A3022 RMK AO2 T10061011
KOLZ 
23nm NW 
230735Z AUTO 05005KT 10SM CLR M01/M03 A3022 RMK AO2 PWINO
KVTI 
29nm SW 
230735Z AUTO 00000KT 1 3/4SM BR VV007 M01/M02 A3022 RMK AO2 VIS 1V5 T10151018
KDBQ 
36nm E 
230653Z AUTO 13006KT 10SM CLR 01/M05 A3023 RMK AO2 SLP243 T00111050
KPDC 
36nm NE 
230735Z AUTO 00000KT 10SM CLR M03/M05 A3026 RMK AO2 T10261051
KCID 
38nm S 
230652Z AUTO 36006KT 10SM CLR 00/M02 A3020 RMK AO2 SLP233 T00001022
KALO 
40nm W 
230654Z AUTO 00000KT 8SM CLR M03/M04 A3022 RMK AO2 SLP240 T10281039
TAF
KDBQ 
36nm E 
230521Z 2306/2406 VRB05KT P6SM SKC FM231400 17011KT P6SM SKC FM232200 14007KT P6SM BKN200
KCID 
38nm S 
230521Z 2306/2406 VRB05KT P6SM SKC FM231400 16009KT P6SM SKC FM232200 14007KT P6SM BKN150
KALO 
40nm W 
230520Z 2306/2406 VRB03KT P6SM FEW250 FM231400 15007KT P6SM BKN180 FM232300 16007KT P6SM BKN200 FM240400 14006KT P6SM VCSH OVC080
NOTAMs
Click for the latest NOTAMs
NOTAMs are issued by the DoD/FAA and will open in a separate window not controlled by AirNav.

 

 
 

FBO, Fuel Providers, and Aircraft Ground Support

  
 Business Name 
 
 Contact 
 
 Services / Description 
 
Fuel Prices
 
Comments
  
Manchester Municipal Airport 563-927-3636
no information available

If you are affiliated with Manchester Municipal Airport and would like to show here your services, contact info, web link, logo, and more, click here
100LL
SS $4.58 
 Updated 17-Dec-2018
 
   write
SS=Self service
Update Fuel Prices
 

Would you like to see your business listed on this page?

 If your business provides an interesting product or service to pilots, flight crews, aircraft, or users of the Manchester Municipal Airport, you should consider listing it here.  To start the listing process, click on the button below
 
Add a business
 

Other Pages about Manchester Municipal Airport

www.manchester-ia.org/index.asp?Type=B_BASIC&SEC={E5D83828-A509-4E02-AAD5-ECE7F706B512}
Page from the Iowa Airport Directory
 
Update a link
 
Copyright © AirNav, LLC. All rights reserved. Privacy Policy  Contact